sensor_id;sensor_type;location;lat;lon;timestamp;pressure;altitude;pressure_sealevel;temperature;humidity
45071;BME280;30836;48.906;9.140;2022-09-06T00:00:35;986.76;;;29.63;36.78
45071;BME280;30836;48.906;9.140;2022-09-06T00:01:36;986.76;;;29.63;36.77
45071;BME280;30836;48.906;9.140;2022-09-06T00:02:37;986.74;;;29.64;36.81
45071;BME280;30836;48.906;9.140;2022-09-06T00:03:37;986.74;;;29.64;36.78
45071;BME280;30836;48.906;9.140;2022-09-06T00:04:38;986.76;;;29.64;36.91
45071;BME280;30836;48.906;9.140;2022-09-06T00:05:38;986.74;;;29.63;36.89
45071;BME280;30836;48.906;9.140;2022-09-06T00:06:39;986.74;;;29.63;36.87
45071;BME280;30836;48.906;9.140;2022-09-06T00:07:39;986.72;;;29.62;36.87
45071;BME280;30836;48.906;9.140;2022-09-06T00:08:42;986.70;;;29.62;36.88
45071;BME280;30836;48.906;9.140;2022-09-06T00:09:43;986.70;;;29.62;36.90
45071;BME280;30836;48.906;9.140;2022-09-06T00:10:43;986.68;;;29.62;36.87
45071;BME280;30836;48.906;9.140;2022-09-06T00:11:44;986.64;;;29.62;36.97
45071;BME280;30836;48.906;9.140;2022-09-06T00:12:44;986.64;;;29.61;36.99
45071;BME280;30836;48.906;9.140;2022-09-06T00:13:45;986.64;;;29.61;36.96
45071;BME280;30836;48.906;9.140;2022-09-06T00:14:46;986.62;;;29.60;37.02
45071;BME280;30836;48.906;9.140;2022-09-06T00:15:47;986.64;;;29.58;37.05
45071;BME280;30836;48.906;9.140;2022-09-06T00:16:47;986.58;;;29.57;37.10
45071;BME280;30836;48.906;9.140;2022-09-06T00:17:47;986.58;;;29.56;37.03
45071;BME280;30836;48.906;9.140;2022-09-06T00:18:48;986.58;;;29.56;36.95
45071;BME280;30836;48.906;9.140;2022-09-06T00:19:52;986.58;;;29.55;36.90
45071;BME280;30836;48.906;9.140;2022-09-06T00:20:52;986.58;;;29.54;36.90
45071;BME280;30836;48.906;9.140;2022-09-06T00:21:53;986.58;;;29.53;36.98
45071;BME280;30836;48.906;9.140;2022-09-06T00:22:57;986.56;;;29.51;37.03
45071;BME280;30836;48.906;9.140;2022-09-06T00:24:02;986.52;;;29.49;37.11
45071;BME280;30836;48.906;9.140;2022-09-06T00:25:03;986.54;;;29.46;37.20
45071;BME280;30836;48.906;9.140;2022-09-06T00:26:05;986.52;;;29.43;37.35
45071;BME280;30836;48.906;9.140;2022-09-06T00:27:06;986.54;;;29.38;37.40
45071;BME280;30836;48.906;9.140;2022-09-06T00:28:07;986.54;;;29.35;37.32
45071;BME280;30836;48.906;9.140;2022-09-06T00:29:08;986.56;;;29.33;37.49
45071;BME280;30836;48.906;9.140;2022-09-06T00:30:08;986.56;;;29.31;37.44
45071;BME280;30836;48.906;9.140;2022-09-06T00:31:10;986.56;;;29.31;37.41
45071;BME280;30836;48.906;9.140;2022-09-06T00:32:13;986.58;;;29.30;37.43
45071;BME280;30836;48.906;9.140;2022-09-06T00:33:14;986.56;;;29.30;37.40
45071;BME280;30836;48.906;9.140;2022-09-06T00:34:14;986.60;;;29.29;37.42
45071;BME280;30836;48.906;9.140;2022-09-06T00:35:15;986.60;;;29.28;37.47
45071;BME280;30836;48.906;9.140;2022-09-06T00:36:16;986.64;;;29.26;37.49
45071;BME280;30836;48.906;9.140;2022-09-06T00:37:18;986.66;;;29.23;37.58
45071;BME280;30836;48.906;9.140;2022-09-06T00:38:18;986.70;;;29.19;37.70
45071;BME280;30836;48.906;9.140;2022-09-06T00:39:18;986.68;;;29.16;37.75
45071;BME280;30836;48.906;9.140;2022-09-06T00:40:19;986.68;;;29.14;37.69
45071;BME280;30836;48.906;9.140;2022-09-06T00:41:19;986.68;;;29.14;37.70
45071;BME280;30836;48.906;9.140;2022-09-06T00:42:20;986.68;;;29.14;37.73
45071;BME280;30836;48.906;9.140;2022-09-06T00:43:20;986.68;;;29.13;37.85
45071;BME280;30836;48.906;9.140;2022-09-06T00:44:21;986.66;;;29.12;37.98
45071;BME280;30836;48.906;9.140;2022-09-06T00:45:22;986.66;;;29.10;38.01
45071;BME280;30836;48.906;9.140;2022-09-06T00:46:26;986.64;;;29.09;37.91
45071;BME280;30836;48.906;9.140;2022-09-06T00:47:28;986.64;;;29.08;37.93
45071;BME280;30836;48.906;9.140;2022-09-06T00:48:28;986.60;;;29.08;37.87
45071;BME280;30836;48.906;9.140;2022-09-06T00:49:30;986.58;;;29.07;37.91
45071;BME280;30836;48.906;9.140;2022-09-06T00:50:33;986.56;;;29.06;38.00
45071;BME280;30836;48.906;9.140;2022-09-06T00:51:34;986.56;;;29.05;37.98
45071;BME280;30836;48.906;9.140;2022-09-06T00:52:35;986.56;;;29.04;38.04
45071;BME280;30836;48.906;9.140;2022-09-06T00:53:37;986.56;;;29.03;38.06
45071;BME280;30836;48.906;9.140;2022-09-06T00:54:38;986.54;;;29.01;38.07
45071;BME280;30836;48.906;9.140;2022-09-06T00:55:39;986.52;;;28.99;38.12
45071;BME280;30836;48.906;9.140;2022-09-06T00:56:41;986.52;;;28.96;38.10
45071;BME280;30836;48.906;9.140;2022-09-06T00:57:43;986.56;;;28.95;38.04
45071;BME280;30836;48.906;9.140;2022-09-06T00:58:44;986.60;;;28.94;38.03
45071;BME280;30836;48.906;9.140;2022-09-06T00:59:46;986.64;;;28.94;37.99
45071;BME280;30836;48.906;9.140;2022-09-06T01:00:47;986.68;;;28.93;37.98
45071;BME280;30836;48.906;9.140;2022-09-06T01:01:47;986.70;;;28.93;37.92
45071;BME280;30836;48.906;9.140;2022-09-06T01:02:48;986.72;;;28.93;37.94
45071;BME280;30836;48.906;9.140;2022-09-06T01:03:48;986.72;;;28.92;37.99
45071;BME280;30836;48.906;9.140;2022-09-06T01:04:49;986.74;;;28.91;37.98
45071;BME280;30836;48.906;9.140;2022-09-06T01:11:19;986.80;;;28.78;38.41
45071;BME280;30836;48.906;9.140;2022-09-06T01:16:03;986.66;;;28.56;38.86
45071;BME280;30836;48.906;9.140;2022-09-06T01:19:37;986.68;;;28.41;39.15
45071;BME280;30836;48.906;9.140;2022-09-06T01:24:09;986.72;;;28.31;39.12
45071;BME280;30836;48.906;9.140;2022-09-06T01:28:43;986.78;;;28.32;39.17
45071;BME280;30836;48.906;9.140;2022-09-06T01:32:07;986.85;;;28.42;39.01
45071;BME280;30836;48.906;9.140;2022-09-06T01:34:27;986.87;;;28.43;39.02
45071;BME280;30836;48.906;9.140;2022-09-06T01:35:35;986.87;;;28.42;39.11
45071;BME280;30836;48.906;9.140;2022-09-06T01:36:43;986.89;;;28.38;39.28
45071;BME280;30836;48.906;9.140;2022-09-06T01:37:50;986.89;;;28.34;39.22
45071;BME280;30836;48.906;9.140;2022-09-06T01:38:51;986.89;;;28.34;39.25
45071;BME280;30836;48.906;9.140;2022-09-06T01:39:52;986.87;;;28.35;39.19
45071;BME280;30836;48.906;9.140;2022-09-06T01:40:52;986.93;;;28.36;39.25
45071;BME280;30836;48.906;9.140;2022-09-06T01:41:53;986.93;;;28.36;39.22
45071;BME280;30836;48.906;9.140;2022-09-06T01:42:57;986.93;;;28.38;39.13
45071;BME280;30836;48.906;9.140;2022-09-06T01:43:58;986.95;;;28.39;39.12
45071;BME280;30836;48.906;9.140;2022-09-06T01:44:59;986.95;;;28.38;39.19
45071;BME280;30836;48.906;9.140;2022-09-06T01:47:21;986.93;;;28.36;39.25
45071;BME280;30836;48.906;9.140;2022-09-06T01:55:29;986.97;;;28.40;39.41
45071;BME280;30836;48.906;9.140;2022-09-06T01:56:42;986.95;;;28.37;39.41
45071;BME280;30836;48.906;9.140;2022-09-06T02:00:08;987.01;;;28.39;39.27
45071;BME280;30836;48.906;9.140;2022-09-06T02:01:14;987.01;;;28.40;39.26
45071;BME280;30836;48.906;9.140;2022-09-06T02:05:50;987.07;;;28.31;39.52
45071;BME280;30836;48.906;9.140;2022-09-06T02:07:02;987.13;;;28.30;39.48
45071;BME280;30836;48.906;9.140;2022-09-06T02:08:12;987.43;;;28.26;39.89
45071;BME280;30836;48.906;9.140;2022-09-06T02:09:18;987.70;;;28.08;40.72
45071;BME280;30836;48.906;9.140;2022-09-06T02:11:31;988.00;;;27.30;42.83
45071;BME280;30836;48.906;9.140;2022-09-06T02:12:39;988.00;;;26.92;43.43
45071;BME280;30836;48.906;9.140;2022-09-06T02:14:56;988.08;;;26.67;43.34
45071;BME280;30836;48.906;9.140;2022-09-06T02:16:04;988.06;;;26.46;43.68
45071;BME280;30836;48.906;9.140;2022-09-06T02:17:07;988.06;;;26.25;44.16
45071;BME280;30836;48.906;9.140;2022-09-06T02:18:13;988.04;;;26.07;44.51
45071;BME280;30836;48.906;9.140;2022-09-06T02:19:19;988.04;;;26.00;44.29
45071;BME280;30836;48.906;9.140;2022-09-06T02:20:23;988.04;;;26.04;43.97
45071;BME280;30836;48.906;9.140;2022-09-06T02:21:29;988.04;;;26.12;43.87
45071;BME280;30836;48.906;9.140;2022-09-06T02:22:34;988.06;;;26.19;43.80
45071;BME280;30836;48.906;9.140;2022-09-06T02:23:39;988.06;;;26.24;43.70
45071;BME280;30836;48.906;9.140;2022-09-06T02:24:42;988.04;;;26.30;43.57
45071;BME280;30836;48.906;9.140;2022-09-06T02:26:56;988.04;;;26.35;44.36
45071;BME280;30836;48.906;9.140;2022-09-06T02:27:57;988.02;;;26.27;44.96
45071;BME280;30836;48.906;9.140;2022-09-06T02:28:57;988.08;;;26.11;46.10
45071;BME280;30836;48.906;9.140;2022-09-06T02:29:58;988.08;;;25.95;46.92
45071;BME280;30836;48.906;9.140;2022-09-06T02:31:00;988.00;;;25.86;47.21
45071;BME280;30836;48.906;9.140;2022-09-06T02:32:05;987.90;;;25.87;47.04
45071;BME280;30836;48.906;9.140;2022-09-06T02:33:13;987.84;;;25.81;48.10
45071;BME280;30836;48.906;9.140;2022-09-06T02:34:18;987.72;;;25.61;48.73
45071;BME280;30836;48.906;9.140;2022-09-06T02:35:19;987.70;;;25.51;48.22
45071;BME280;30836;48.906;9.140;2022-09-06T02:36:19;987.76;;;25.47;48.22
45071;BME280;30836;48.906;9.140;2022-09-06T02:37:21;987.74;;;25.40;48.45
45071;BME280;30836;48.906;9.140;2022-09-06T02:38:23;987.72;;;25.34;48.12
45071;BME280;30836;48.906;9.140;2022-09-06T02:39:25;987.80;;;25.33;48.38
45071;BME280;30836;48.906;9.140;2022-09-06T02:40:26;987.80;;;25.37;48.14
45071;BME280;30836;48.906;9.140;2022-09-06T02:41:27;987.82;;;25.46;47.71
45071;BME280;30836;48.906;9.140;2022-09-06T02:42:28;987.80;;;25.57;47.58
45071;BME280;30836;48.906;9.140;2022-09-06T02:43:29;987.76;;;25.68;47.39
45071;BME280;30836;48.906;9.140;2022-09-06T02:44:29;987.78;;;25.84;47.12
45071;BME280;30836;48.906;9.140;2022-09-06T02:45:30;987.78;;;25.96;46.70
45071;BME280;30836;48.906;9.140;2022-09-06T02:46:30;987.88;;;25.94;47.12
45071;BME280;30836;48.906;9.140;2022-09-06T02:47:31;988.04;;;25.79;48.20
45071;BME280;30836;48.906;9.140;2022-09-06T02:48:31;988.21;;;25.62;48.54
45071;BME280;30836;48.906;9.140;2022-09-06T02:49:31;988.29;;;25.43;48.86
45071;BME280;30836;48.906;9.140;2022-09-06T02:50:32;988.25;;;25.23;49.80
45071;BME280;30836;48.906;9.140;2022-09-06T02:51:36;988.21;;;25.14;49.78
45071;BME280;30836;48.906;9.140;2022-09-06T02:52:37;988.13;;;25.18;49.87
45071;BME280;30836;48.906;9.140;2022-09-06T02:53:38;988.04;;;25.32;49.15
45071;BME280;30836;48.906;9.140;2022-09-06T02:54:38;987.88;;;25.41;49.13
45071;BME280;30836;48.906;9.140;2022-09-06T02:55:39;987.80;;;25.42;48.72
45071;BME280;30836;48.906;9.140;2022-09-06T02:56:39;987.68;;;25.53;48.24
45071;BME280;30836;48.906;9.140;2022-09-06T02:57:40;987.58;;;25.68;47.78
45071;BME280;30836;48.906;9.140;2022-09-06T02:58:40;987.49;;;25.82;47.65
45071;BME280;30836;48.906;9.140;2022-09-06T02:59:41;987.45;;;25.99;47.38
45071;BME280;30836;48.906;9.140;2022-09-06T03:00:41;987.31;;;26.14;47.83
45071;BME280;30836;48.906;9.140;2022-09-06T03:01:42;987.17;;;26.26;47.93
45071;BME280;30836;48.906;9.140;2022-09-06T03:02:42;987.07;;;26.37;47.81
45071;BME280;30836;48.906;9.140;2022-09-06T03:03:43;986.99;;;26.41;48.57
45071;BME280;30836;48.906;9.140;2022-09-06T03:04:43;986.91;;;26.38;48.77
45071;BME280;30836;48.906;9.140;2022-09-06T03:05:47;986.87;;;26.34;48.51
45071;BME280;30836;48.906;9.140;2022-09-06T03:06:49;986.89;;;26.35;48.10
45071;BME280;30836;48.906;9.140;2022-09-06T03:07:49;986.89;;;26.44;47.73
45071;BME280;30836;48.906;9.140;2022-09-06T03:08:50;986.97;;;26.55;47.50
45071;BME280;30836;48.906;9.140;2022-09-06T03:09:50;987.07;;;26.65;47.20
45071;BME280;30836;48.906;9.140;2022-09-06T03:10:51;987.05;;;26.74;46.70
45071;BME280;30836;48.906;9.140;2022-09-06T03:11:53;987.07;;;26.81;46.45
45071;BME280;30836;48.906;9.140;2022-09-06T03:12:54;987.07;;;26.89;46.25
45071;BME280;30836;48.906;9.140;2022-09-06T03:13:54;987.07;;;26.94;46.65
45071;BME280;30836;48.906;9.140;2022-09-06T03:14:55;987.05;;;26.98;46.92
45071;BME280;30836;48.906;9.140;2022-09-06T03:15:56;987.09;;;27.01;46.89
45071;BME280;30836;48.906;9.140;2022-09-06T03:16:58;987.13;;;27.06;46.76
45071;BME280;30836;48.906;9.140;2022-09-06T03:17:58;987.15;;;27.09;46.55
45071;BME280;30836;48.906;9.140;2022-09-06T03:18:08;987.15;;;27.10;46.45
45071;BME280;30836;48.906;9.140;2022-09-06T03:19:09;987.17;;;27.09;46.56
45071;BME280;30836;48.906;9.140;2022-09-06T03:20:10;987.19;;;27.01;47.21
45071;BME280;30836;48.906;9.140;2022-09-06T03:21:11;987.27;;;26.87;47.53
45071;BME280;30836;48.906;9.140;2022-09-06T03:22:12;987.33;;;26.73;48.01
45071;BME280;30836;48.906;9.140;2022-09-06T03:23:12;987.33;;;26.59;48.27
45071;BME280;30836;48.906;9.140;2022-09-06T03:24:13;987.33;;;26.44;48.72
45071;BME280;30836;48.906;9.140;2022-09-06T03:25:13;987.29;;;26.26;48.97
45071;BME280;30836;48.906;9.140;2022-09-06T03:26:14;987.17;;;26.13;49.26
45071;BME280;30836;48.906;9.140;2022-09-06T03:27:14;987.19;;;26.05;49.36
45071;BME280;30836;48.906;9.140;2022-09-06T03:28:15;987.19;;;25.98;49.51
45071;BME280;30836;48.906;9.140;2022-09-06T03:29:16;987.19;;;25.85;49.90
45071;BME280;30836;48.906;9.140;2022-09-06T03:30:16;987.19;;;25.71;49.94
45071;BME280;30836;48.906;9.140;2022-09-06T03:31:17;987.27;;;25.62;50.06
45071;BME280;30836;48.906;9.140;2022-09-06T03:32:17;987.27;;;25.57;50.00
45071;BME280;30836;48.906;9.140;2022-09-06T03:33:18;987.27;;;25.56;49.97
45071;BME280;30836;48.906;9.140;2022-09-06T03:34:19;987.29;;;25.57;50.42
45071;BME280;30836;48.906;9.140;2022-09-06T03:35:19;987.31;;;25.58;50.54
45071;BME280;30836;48.906;9.140;2022-09-06T03:36:20;987.33;;;25.61;50.50
45071;BME280;30836;48.906;9.140;2022-09-06T03:37:20;987.37;;;25.64;50.56
45071;BME280;30836;48.906;9.140;2022-09-06T03:38:21;987.41;;;25.66;50.54
45071;BME280;30836;48.906;9.140;2022-09-06T03:39:22;987.41;;;25.69;50.46
45071;BME280;30836;48.906;9.140;2022-09-06T03:40:22;987.41;;;25.70;50.39
45071;BME280;30836;48.906;9.140;2022-09-06T03:41:23;987.43;;;25.71;50.40
45071;BME280;30836;48.906;9.140;2022-09-06T03:42:23;987.45;;;25.72;50.58
45071;BME280;30836;48.906;9.140;2022-09-06T03:43:24;987.47;;;25.71;50.73
45071;BME280;30836;48.906;9.140;2022-09-06T03:43:36;987.47;;;25.67;50.73
45071;BME280;30836;48.906;9.140;2022-09-06T03:44:37;987.49;;;25.69;50.69
45071;BME280;30836;48.906;9.140;2022-09-06T03:45:37;987.53;;;25.73;50.65
45071;BME280;30836;48.906;9.140;2022-09-06T03:46:38;987.57;;;25.74;50.55
45071;BME280;30836;48.906;9.140;2022-09-06T03:47:38;987.58;;;25.72;50.63
45071;BME280;30836;48.906;9.140;2022-09-06T03:48:38;987.57;;;25.68;50.56
45071;BME280;30836;48.906;9.140;2022-09-06T03:49:39;987.58;;;25.64;50.51
45071;BME280;30836;48.906;9.140;2022-09-06T03:50:46;987.57;;;25.63;50.47
45071;BME280;30836;48.906;9.140;2022-09-06T03:51:48;987.57;;;25.63;50.43
45071;BME280;30836;48.906;9.140;2022-09-06T03:52:48;987.57;;;25.65;50.34
45071;BME280;30836;48.906;9.140;2022-09-06T03:53:49;987.60;;;25.67;50.29
45071;BME280;30836;48.906;9.140;2022-09-06T03:54:50;987.62;;;25.69;50.22
45071;BME280;30836;48.906;9.140;2022-09-06T03:55:51;987.64;;;25.71;50.09
45071;BME280;30836;48.906;9.140;2022-09-06T03:56:53;987.68;;;25.74;50.17
45071;BME280;30836;48.906;9.140;2022-09-06T03:57:54;987.68;;;25.76;50.41
45071;BME280;30836;48.906;9.140;2022-09-06T03:58:54;987.68;;;25.77;50.70
45071;BME280;30836;48.906;9.140;2022-09-06T03:59:55;987.64;;;25.77;50.80
45071;BME280;30836;48.906;9.140;2022-09-06T04:00:59;987.58;;;25.78;50.82
45071;BME280;30836;48.906;9.140;2022-09-06T04:02:00;987.57;;;25.80;50.76
45071;BME280;30836;48.906;9.140;2022-09-06T04:03:01;987.57;;;25.83;50.62
45071;BME280;30836;48.906;9.140;2022-09-06T04:04:02;987.55;;;25.86;50.56
45071;BME280;30836;48.906;9.140;2022-09-06T04:05:02;987.53;;;25.89;50.45
45071;BME280;30836;48.906;9.140;2022-09-06T04:06:03;987.51;;;25.91;50.31
45071;BME280;30836;48.906;9.140;2022-09-06T04:07:05;987.51;;;25.95;50.17
45071;BME280;30836;48.906;9.140;2022-09-06T04:08:05;987.47;;;26.06;49.77
45071;BME280;30836;48.906;9.140;2022-09-06T04:09:06;987.47;;;26.22;49.49
45071;BME280;30836;48.906;9.140;2022-09-06T04:10:06;987.45;;;26.38;49.27
45071;BME280;30836;48.906;9.140;2022-09-06T04:11:07;987.43;;;26.52;49.04
45071;BME280;30836;48.906;9.140;2022-09-06T04:12:07;987.39;;;26.64;48.78
45071;BME280;30836;48.906;9.140;2022-09-06T04:13:08;987.37;;;26.73;48.55
45071;BME280;30836;48.906;9.140;2022-09-06T04:14:08;987.37;;;26.80;48.57
45071;BME280;30836;48.906;9.140;2022-09-06T04:15:09;987.39;;;26.85;48.48
45071;BME280;30836;48.906;9.140;2022-09-06T04:16:09;987.39;;;26.90;48.35
45071;BME280;30836;48.906;9.140;2022-09-06T04:17:10;987.39;;;26.95;48.27
45071;BME280;30836;48.906;9.140;2022-09-06T04:18:10;987.39;;;26.98;48.33
45071;BME280;30836;48.906;9.140;2022-09-06T04:19:11;987.43;;;27.00;48.36
45071;BME280;30836;48.906;9.140;2022-09-06T04:20:12;987.43;;;27.03;48.36
45071;BME280;30836;48.906;9.140;2022-09-06T04:21:13;987.47;;;27.04;48.15
45071;BME280;30836;48.906;9.140;2022-09-06T04:22:13;987.51;;;27.06;48.10
45071;BME280;30836;48.906;9.140;2022-09-06T04:23:14;987.49;;;27.08;48.12
45071;BME280;30836;48.906;9.140;2022-09-06T04:24:15;987.47;;;27.10;48.19
45071;BME280;30836;48.906;9.140;2022-09-06T04:25:15;987.41;;;27.12;48.12
45071;BME280;30836;48.906;9.140;2022-09-06T04:26:15;987.39;;;27.15;48.08
45071;BME280;30836;48.906;9.140;2022-09-06T04:27:16;987.35;;;27.15;48.26
45071;BME280;30836;48.906;9.140;2022-09-06T04:28:17;987.33;;;27.13;48.25
45071;BME280;30836;48.906;9.140;2022-09-06T04:29:18;987.31;;;27.13;48.13
45071;BME280;30836;48.906;9.140;2022-09-06T04:30:18;987.29;;;27.13;48.20
45071;BME280;30836;48.906;9.140;2022-09-06T04:31:18;987.27;;;27.13;48.19
45071;BME280;30836;48.906;9.140;2022-09-06T04:32:19;987.19;;;27.15;48.20
45071;BME280;30836;48.906;9.140;2022-09-06T04:33:20;987.19;;;27.18;48.09
45071;BME280;30836;48.906;9.140;2022-09-06T04:34:21;987.19;;;27.20;47.95
45071;BME280;30836;48.906;9.140;2022-09-06T04:35:22;987.19;;;27.22;47.80
45071;BME280;30836;48.906;9.140;2022-09-06T04:36:22;987.17;;;27.24;47.56
45071;BME280;30836;48.906;9.140;2022-09-06T04:37:22;987.13;;;27.24;47.39
45071;BME280;30836;48.906;9.140;2022-09-06T04:38:24;987.13;;;27.22;47.38
45071;BME280;30836;48.906;9.140;2022-09-06T04:39:28;987.09;;;27.16;47.60
45071;BME280;30836;48.906;9.140;2022-09-06T04:40:29;987.09;;;27.02;48.07
45071;BME280;30836;48.906;9.140;2022-09-06T04:41:29;987.11;;;26.87;48.55
45071;BME280;30836;48.906;9.140;2022-09-06T04:42:30;987.11;;;26.72;49.06
45071;BME280;30836;48.906;9.140;2022-09-06T04:43:30;987.11;;;26.60;49.29
45071;BME280;30836;48.906;9.140;2022-09-06T04:44:31;987.13;;;26.48;49.32
45071;BME280;30836;48.906;9.140;2022-09-06T04:45:32;987.15;;;26.36;49.43
45071;BME280;30836;48.906;9.140;2022-09-06T04:46:32;987.27;;;26.28;49.65
45071;BME280;30836;48.906;9.140;2022-09-06T04:47:33;987.27;;;26.23;49.73
45071;BME280;30836;48.906;9.140;2022-09-06T04:48:33;987.29;;;26.19;49.80
45071;BME280;30836;48.906;9.140;2022-09-06T04:49:34;987.33;;;26.16;49.68
45071;BME280;30836;48.906;9.140;2022-09-06T04:50:35;987.37;;;26.13;49.83
45071;BME280;30836;48.906;9.140;2022-09-06T04:51:36;987.41;;;26.10;49.76
45071;BME280;30836;48.906;9.140;2022-09-06T04:52:37;987.41;;;26.07;49.78
45071;BME280;30836;48.906;9.140;2022-09-06T04:53:37;987.45;;;26.04;49.74
45071;BME280;30836;48.906;9.140;2022-09-06T04:54:37;987.45;;;26.00;49.67
45071;BME280;30836;48.906;9.140;2022-09-06T04:55:38;987.47;;;25.97;49.66
45071;BME280;30836;48.906;9.140;2022-09-06T04:56:38;987.47;;;25.97;49.65
45071;BME280;30836;48.906;9.140;2022-09-06T04:57:39;987.49;;;25.98;49.77
45071;BME280;30836;48.906;9.140;2022-09-06T04:58:39;987.49;;;26.00;49.57
45071;BME280;30836;48.906;9.140;2022-09-06T04:59:40;987.47;;;26.02;49.47
45071;BME280;30836;48.906;9.140;2022-09-06T05:00:40;987.45;;;26.03;49.44
45071;BME280;30836;48.906;9.140;2022-09-06T05:00:50;987.49;;;26.03;49.41
45071;BME280;30836;48.906;9.140;2022-09-06T05:01:50;987.49;;;26.05;49.39
45071;BME280;30836;48.906;9.140;2022-09-06T05:02:51;987.51;;;26.07;49.53
45071;BME280;30836;48.906;9.140;2022-09-06T05:03:52;987.51;;;26.07;49.63
45071;BME280;30836;48.906;9.140;2022-09-06T05:04:52;987.55;;;26.06;49.70
45071;BME280;30836;48.906;9.140;2022-09-06T05:06:02;987.55;;;26.05;49.77
45071;BME280;30836;48.906;9.140;2022-09-06T05:07:04;987.53;;;26.04;49.86
45071;BME280;30836;48.906;9.140;2022-09-06T05:08:06;987.53;;;26.06;49.80
45071;BME280;30836;48.906;9.140;2022-09-06T05:09:07;987.47;;;26.14;49.57
45071;BME280;30836;48.906;9.140;2022-09-06T05:10:08;987.47;;;26.24;49.42
45071;BME280;30836;48.906;9.140;2022-09-06T05:11:09;987.49;;;26.33;49.20
45071;BME280;30836;48.906;9.140;2022-09-06T05:12:09;987.47;;;26.41;48.87
45071;BME280;30836;48.906;9.140;2022-09-06T05:13:10;987.51;;;26.50;48.64
45071;BME280;30836;48.906;9.140;2022-09-06T05:14:10;987.51;;;26.57;48.33
45071;BME280;30836;48.906;9.140;2022-09-06T05:15:10;987.57;;;26.62;48.33
45071;BME280;30836;48.906;9.140;2022-09-06T05:16:11;987.58;;;26.68;48.19
45071;BME280;30836;48.906;9.140;2022-09-06T05:17:11;987.60;;;26.74;48.14
45071;BME280;30836;48.906;9.140;2022-09-06T05:18:12;987.66;;;26.79;47.89
45071;BME280;30836;48.906;9.140;2022-09-06T05:19:12;987.68;;;26.81;47.85
45071;BME280;30836;48.906;9.140;2022-09-06T05:20:13;987.66;;;26.83;47.84
45071;BME280;30836;48.906;9.140;2022-09-06T05:21:14;987.68;;;26.84;47.77
45071;BME280;30836;48.906;9.140;2022-09-06T05:22:14;987.66;;;26.84;47.81
45071;BME280;30836;48.906;9.140;2022-09-06T05:23:15;987.66;;;26.83;48.03
45071;BME280;30836;48.906;9.140;2022-09-06T05:24:15;987.66;;;26.83;48.05
45071;BME280;30836;48.906;9.140;2022-09-06T05:25:15;987.62;;;26.83;48.09
45071;BME280;30836;48.906;9.140;2022-09-06T05:26:16;987.60;;;26.79;48.24
45071;BME280;30836;48.906;9.140;2022-09-06T05:27:16;987.62;;;26.75;48.37
45071;BME280;30836;48.906;9.140;2022-09-06T05:28:17;987.62;;;26.74;48.42
45071;BME280;30836;48.906;9.140;2022-09-06T05:29:18;987.64;;;26.74;48.33
45071;BME280;30836;48.906;9.140;2022-09-06T05:30:18;987.66;;;26.73;48.32
45071;BME280;30836;48.906;9.140;2022-09-06T05:32:26;987.68;;;26.67;48.51
45071;BME280;30836;48.906;9.140;2022-09-06T05:33:26;987.68;;;26.64;48.62
45071;BME280;30836;48.906;9.140;2022-09-06T05:34:26;987.64;;;26.61;48.39
45071;BME280;30836;48.906;9.140;2022-09-06T05:35:27;987.64;;;26.62;48.49
45071;BME280;30836;48.906;9.140;2022-09-06T05:36:28;987.62;;;26.61;48.39
45071;BME280;30836;48.906;9.140;2022-09-06T05:37:29;987.60;;;26.59;48.50
45071;BME280;30836;48.906;9.140;2022-09-06T05:38:30;987.64;;;26.54;48.68
45071;BME280;30836;48.906;9.140;2022-09-06T05:39:30;987.62;;;26.48;48.62
45071;BME280;30836;48.906;9.140;2022-09-06T05:40:31;987.64;;;26.43;48.81
45071;BME280;30836;48.906;9.140;2022-09-06T05:41:31;987.66;;;26.42;48.80
45071;BME280;30836;48.906;9.140;2022-09-06T05:42:32;987.68;;;26.44;48.81
45071;BME280;30836;48.906;9.140;2022-09-06T05:43:32;987.66;;;26.44;48.83
45071;BME280;30836;48.906;9.140;2022-09-06T05:44:33;987.68;;;26.44;48.80
45071;BME280;30836;48.906;9.140;2022-09-06T05:45:34;987.68;;;26.42;49.09
45071;BME280;30836;48.906;9.140;2022-09-06T05:46:40;987.70;;;26.38;48.94
45071;BME280;30836;48.906;9.140;2022-09-06T05:47:43;987.66;;;26.36;48.94
45071;BME280;30836;48.906;9.140;2022-09-06T05:48:50;987.68;;;26.31;49.00
45071;BME280;30836;48.906;9.140;2022-09-06T05:49:53;987.70;;;26.29;49.02
45071;BME280;30836;48.906;9.140;2022-09-06T05:52:00;987.68;;;26.28;48.92
45071;BME280;30836;48.906;9.140;2022-09-06T05:53:00;987.68;;;26.30;48.79
45071;BME280;30836;48.906;9.140;2022-09-06T05:54:01;987.68;;;26.29;48.87
45071;BME280;30836;48.906;9.140;2022-09-06T05:55:02;987.68;;;26.27;48.92
45071;BME280;30836;48.906;9.140;2022-09-06T05:56:03;987.62;;;26.25;49.02
45071;BME280;30836;48.906;9.140;2022-09-06T05:57:04;987.62;;;26.19;49.09
45071;BME280;30836;48.906;9.140;2022-09-06T05:58:05;987.62;;;26.15;48.92
45071;BME280;30836;48.906;9.140;2022-09-06T05:59:05;987.62;;;26.15;48.93
45071;BME280;30836;48.906;9.140;2022-09-06T06:00:06;987.64;;;26.17;48.81
45071;BME280;30836;48.906;9.140;2022-09-06T06:01:09;987.62;;;26.20;48.73
45071;BME280;30836;48.906;9.140;2022-09-06T06:02:17;987.62;;;26.23;48.78
45071;BME280;30836;48.906;9.140;2022-09-06T06:03:18;987.60;;;26.25;48.85
45071;BME280;30836;48.906;9.140;2022-09-06T06:04:19;987.60;;;26.26;48.84
45071;BME280;30836;48.906;9.140;2022-09-06T06:05:20;987.58;;;26.28;48.67
45071;BME280;30836;48.906;9.140;2022-09-06T06:06:21;987.57;;;26.28;48.61
45071;BME280;30836;48.906;9.140;2022-09-06T06:07:22;987.57;;;26.29;48.54
45071;BME280;30836;48.906;9.140;2022-09-06T06:08:23;987.57;;;26.33;48.61
45071;BME280;30836;48.906;9.140;2022-09-06T06:09:23;987.58;;;26.36;48.65
45071;BME280;30836;48.906;9.140;2022-09-06T06:10:24;987.60;;;26.41;48.50
45071;BME280;30836;48.906;9.140;2022-09-06T06:11:25;987.60;;;26.45;48.35
45071;BME280;30836;48.906;9.140;2022-09-06T06:12:26;987.62;;;26.46;48.27
45071;BME280;30836;48.906;9.140;2022-09-06T06:13:27;987.64;;;26.48;48.26
45071;BME280;30836;48.906;9.140;2022-09-06T06:14:28;987.68;;;26.51;48.13